Time;durP1;ratioP1;P1;durP2;ratioP2;P2;SDS_P1;SDS_P2;PMS_P1;PMS_P2;Temp;Humidity;BMP_temperature;BMP_pressure;BME280_temperature;BME280_humidity;BME280_pressure;Samples;Min_cycle;Max_cycle;Signal;HPM_P1;HPM_P2
2022/09/01 00:18:10;;;;;;;4.15;2.22;;;;;;;15.93;67.36;101913.22;5092339;28;20071;-75
2022/09/01 00:23:59;;;;;;;4.20;2.00;;;;;;;15.83;69.70;101910.19;5093307;28;20047;-75
2022/09/01 00:26:24;;;;;;;4.00;1.92;;;;;;;15.80;70.68;101914.16;5058728;28;20040;-75
2022/09/01 00:28:50;;;;;;;3.13;2.17;;;;;;;15.78;70.82;101914.38;5094776;28;20189;-75
2022/09/01 00:31:17;;;;;;;4.38;2.22;;;;;;;15.73;71.39;101914.22;5092746;28;20085;-76
2022/09/01 00:33:43;;;;;;;7.32;2.03;;;;;;;15.69;71.91;101917.59;5095871;28;20063;-74
2022/09/01 00:36:08;;;;;;;4.13;2.17;;;;;;;15.68;72.03;101926.75;5074723;28;20476;-74
2022/09/01 00:38:34;;;;;;;2.58;1.83;;;;;;;15.64;72.82;101920.13;5092744;28;20108;-74
2022/09/01 00:41:00;;;;;;;4.38;2.20;;;;;;;15.64;73.25;101920.13;5095560;28;20577;-75
2022/09/01 00:43:46;;;;;;;5.72;2.13;;;;;;;15.63;72.37;101916.63;5092774;28;20117;-75
2022/09/01 00:46:29;;;;;;;5.30;1.95;;;;;;;15.60;73.73;101916.22;5095711;28;20456;-75
2022/09/01 00:49:00;;;;;;;4.38;2.28;;;;;;;15.45;74.27;101892.25;5074447;28;20505;-76
2022/09/01 00:54:52;;;;;;;7.22;2.88;;;;;;;15.47;75.02;101911.72;5093160;28;20079;-76
2022/09/01 00:57:17;;;;;;;3.08;2.00;;;;;;;15.41;75.80;101915.31;5077663;28;20155;-75
2022/09/01 00:59:52;;;;;;;3.20;2.45;;;;;;;15.37;75.58;101908.72;5074338;28;20464;-75
2022/09/01 01:02:17;;;;;;;4.28;2.22;;;;;;;15.34;76.53;101903.78;5092635;28;20036;-75
2022/09/01 01:04:43;;;;;;;3.92;2.72;;;;;;;15.32;76.86;101917.44;5095705;28;20040;-75
2022/09/01 01:07:10;;;;;;;5.43;2.88;;;;;;;15.27;76.88;101902.97;5092618;28;20525;-74
2022/09/01 01:09:40;;;;;;;5.60;2.83;;;;;;;15.23;78.01;101904.47;5077543;28;20047;-75
2022/09/01 01:12:10;;;;;;;5.15;3.08;;;;;;;15.17;78.27;101906.97;5092418;28;20115;-75
2022/09/01 01:14:38;;;;;;;6.65;3.05;;;;;;;15.11;78.68;101902.47;5095259;28;20139;-75
2022/09/01 01:17:03;;;;;;;4.28;2.90;;;;;;;15.14;78.77;101909.28;5092410;28;20031;-75
2022/09/01 01:23:12;;;;;;;4.03;2.25;;;;;;;15.04;79.33;101901.69;5092549;28;20419;-75
2022/09/01 01:25:47;;;;;;;5.43;2.63;;;;;;;14.91;80.37;101898.25;5092271;28;20032;-75
2022/09/01 01:28:25;;;;;;;5.80;2.40;;;;;;;14.78;80.97;101896.47;5093876;28;20097;-75
2022/09/01 01:31:01;;;;;;;4.50;2.40;;;;;;;14.77;81.15;101902.91;5092253;28;20383;-75
2022/09/01 01:33:39;;;;;;;7.47;2.08;;;;;;;14.70;81.74;101892.16;5095304;28;20036;-74
2022/09/01 01:39:27;;;;;;;3.58;2.60;;;;;;;14.66;82.81;101895.50;5092240;28;20038;-75
2022/09/01 01:45:16;;;;;;;5.03;2.33;;;;;;;14.51;84.34;101904.69;5092321;28;20047;-75
2022/09/01 01:47:52;;;;;;;5.43;2.78;;;;;;;14.44;85.36;101906.56;5092055;28;20029;-75
2022/09/01 01:50:22;;;;;;;3.47;2.40;;;;;;;14.38;85.90;101904.69;5095198;28;20036;-75
2022/09/01 01:52:47;;;;;;;2.38;2.17;;;;;;;14.32;86.52;101905.53;5090635;28;20051;-74
2022/09/01 01:55:13;;;;;;;2.90;2.28;;;;;;;14.34;86.19;101906.16;5094861;28;20122;-75
2022/09/01 01:57:48;;;;;;;3.28;2.38;;;;;;;14.37;86.80;101912.97;5091904;28;20028;-75
2022/09/01 02:00:18;;;;;;;2.63;2.28;;;;;;;14.38;87.25;101911.94;5091808;28;20107;-74
2022/09/01 02:02:47;;;;;;;8.20;3.53;;;;;;;14.27;87.69;101908.88;5094821;28;20077;-75
2022/09/01 02:05:20;;;;;;;9.15;3.03;;;;;;;14.34;87.42;101908.84;5091846;28;20024;-75
2022/09/01 02:11:08;;;;;;;4.82;2.50;;;;;;;14.36;87.35;101906.78;5091782;28;20407;-75
2022/09/01 02:13:34;;;;;;;3.47;2.47;;;;;;;14.31;88.24;101903.91;5076819;28;20043;-75
2022/09/01 02:19:21;;;;;;;3.22;2.60;;;;;;;14.31;87.62;101913.84;5091893;28;20035;-75
2022/09/01 02:25:08;;;;;;;5.10;2.33;;;;;;;14.34;87.23;101908.03;5091934;28;20051;-75
2022/09/01 02:30:56;;;;;;;3.65;2.60;;;;;;;14.23;88.08;101912.22;5091892;28;20427;-75
2022/09/01 02:36:47;;;;;;;4.90;2.83;;;;;;;14.12;89.54;101910.16;5091622;28;20101;-75
2022/09/01 02:39:19;;;;;;;7.95;2.92;;;;;;;13.99;90.15;101907.50;5091289;28;20020;-75
2022/09/01 02:45:10;;;;;;;4.78;2.63;;;;;;;13.83;91.54;101912.28;5094859;28;20047;-75
2022/09/01 02:47:39;;;;;;;4.28;2.83;;;;;;;13.77;92.15;101915.81;5097606;28;20100;-74
2022/09/01 02:50:05;;;;;;;5.30;2.88;;;;;;;13.70;92.63;101904.25;5094707;28;20036;-74
2022/09/01 02:55:52;;;;;;;4.82;2.72;;;;;;;13.71;92.19;101895.16;5094919;28;20043;-75
2022/09/01 02:58:18;;;;;;;4.40;2.92;;;;;;;13.75;92.25;101909.00;5094938;28;20036;-74
2022/09/01 03:00:45;;;;;;;3.80;2.50;;;;;;;13.73;92.36;101894.94;5096891;28;20043;-75
2022/09/01 03:03:18;;;;;;;5.20;3.08;;;;;;;13.69;92.73;101894.53;5094447;28;20114;-74
2022/09/01 03:05:43;;;;;;;3.58;2.88;;;;;;;13.70;92.71;101893.50;5097729;28;20123;-74
2022/09/01 03:08:11;;;;;;;4.82;2.97;;;;;;;13.67;92.76;101895.78;5094401;28;20056;-74
2022/09/01 03:13:58;;;;;;;7.22;3.58;;;;;;;13.71;91.70;101897.84;5094567;28;20039;-75
2022/09/01 03:16:23;;;;;;;3.72;2.70;;;;;;;13.77;91.42;101886.25;5097408;28;20051;-75
2022/09/01 03:18:49;;;;;;;4.28;3.47;;;;;;;13.80;91.37;101887.69;5076100;28;20024;-74
2022/09/01 03:21:15;;;;;;;4.13;2.67;;;;;;;13.80;91.12;101893.06;5093932;28;20086;-74
2022/09/01 03:23:43;;;;;;;4.43;3.03;;;;;;;13.83;91.18;101890.78;5096922;28;20035;-74
2022/09/01 03:26:08;;;;;;;4.75;2.97;;;;;;;13.82;91.07;101893.66;5093817;28;20039;-74
2022/09/01 03:28:36;;;;;;;4.88;3.20;;;;;;;13.78;91.86;101890.56;5078883;28;20036;-74
2022/09/01 03:31:02;;;;;;;5.13;3.00;;;;;;;13.77;91.19;101893.47;5075668;28;20028;-74
2022/09/01 03:33:27;;;;;;;4.93;3.15;;;;;;;13.65;91.49;101885.25;5093806;28;20038;-73
2022/09/01 03:35:53;;;;;;;5.22;2.97;;;;;;;13.64;91.31;101889.78;5096874;28;20094;-73
2022/09/01 03:38:23;;;;;;;3.08;2.78;;;;;;;13.56;90.98;101889.16;5094100;28;20028;-73
2022/09/01 03:40:57;;;;;;;3.88;2.80;;;;;;;13.56;90.93;101883.78;5096991;28;20048;-73
2022/09/01 03:43:23;;;;;;;4.60;3.08;;;;;;;13.51;90.41;101886.25;5093997;28;20028;-74
2022/09/01 03:45:50;;;;;;;4.40;2.60;;;;;;;13.56;90.29;101891.84;5075831;28;20082;-74
2022/09/01 03:51:37;;;;;;;6.10;3.25;;;;;;;13.57;89.79;101880.88;5093916;28;20104;-74
2022/09/01 03:54:03;;;;;;;3.50;2.60;;;;;;;13.63;89.33;101885.44;5096786;28;20528;-74
2022/09/01 03:56:29;;;;;;;5.72;2.90;;;;;;;13.65;89.18;101887.91;5093720;28;20077;-74
2022/09/01 03:58:56;;;;;;;6.18;2.90;;;;;;;13.68;88.93;101894.75;5096649;28;20072;-74
2022/09/01 04:01:22;;;;;;;4.47;2.50;;;;;;;13.67;89.06;101896.59;5093585;28;20032;-73
2022/09/01 04:03:47;;;;;;;5.07;2.65;;;;;;;13.62;89.49;101883.78;5093436;28;20039;-74
2022/09/01 04:06:17;;;;;;;3.40;2.80;;;;;;;13.60;89.25;101882.34;5096591;28;20101;-75
2022/09/01 04:08:43;;;;;;;4.07;2.75;;;;;;;13.60;89.60;101880.50;5093487;28;20105;-75
2022/09/01 04:11:17;;;;;;;3.75;2.95;;;;;;;13.56;89.16;101881.91;5078527;28;20097;-74
2022/09/01 04:13:43;;;;;;;4.45;2.70;;;;;;;13.56;89.33;101883.78;5093376;28;20105;-74
2022/09/01 04:18:08;;;;;;;5.00;2.97;;;;;;;13.55;89.51;101882.94;5096477;28;20407;-74
2022/09/01 04:19:14;;;;;;;6.10;2.70;;;;;;;13.48;89.42;101876.75;5093064;28;20112;-74
2022/09/01 04:21:41;;;;;;;5.15;2.95;;;;;;;13.44;89.63;101880.06;5076362;28;20031;-73
2022/09/01 04:24:08;;;;;;;5.70;2.97;;;;;;;13.45;89.65;101895.16;5076826;28;20032;-74
2022/09/01 04:26:33;;;;;;;8.68;3.35;;;;;;;13.44;89.52;101885.44;5093156;28;20024;-75
2022/09/01 04:28:59;;;;;;;5.85;2.85;;;;;;;13.41;89.71;101892.06;5096470;28;20097;-74
2022/09/01 04:31:25;;;;;;;5.65;3.05;;;;;;;13.36;90.02;101894.56;5093273;28;20028;-75
2022/09/01 04:33:51;;;;;;;5.70;3.05;;;;;;;13.35;89.80;101897.44;5078034;28;20707;-75
2022/09/01 04:36:27;;;;;;;6.00;3.47;;;;;;;13.33;89.61;101895.78;5093395;28;20099;-75
2022/09/01 04:38:57;;;;;;;4.85;2.47;;;;;;;13.31;89.65;101891.66;5093090;28;20032;-74
2022/09/01 04:44:45;;;;;;;5.13;3.13;;;;;;;13.25;89.57;101892.47;5093517;28;20047;-76
2022/09/01 04:47:15;;;;;;;4.70;3.00;;;;;;;13.20;90.02;101889.56;5095996;28;20036;-75
2022/09/01 04:49:40;;;;;;;6.93;3.13;;;;;;;13.16;90.16;101891.81;5074900;28;20171;-75
2022/09/01 04:52:06;;;;;;;6.40;3.78;;;;;;;13.12;90.46;101889.75;5095561;28;20075;-75
2022/09/01 04:54:32;;;;;;;4.40;3.10;;;;;;;13.08;90.18;101877.75;5092517;28;20042;-75
2022/09/01 04:56:57;;;;;;;10.02;3.55;;;;;;;13.14;89.97;101893.06;5074461;28;20027;-75
2022/09/01 04:59:25;;;;;;;6.23;3.03;;;;;;;13.13;89.73;101889.53;5078031;28;20040;-75
2022/09/01 05:01:53;;;;;;;3.83;2.83;;;;;;;13.15;90.09;101898.22;5092753;28;20646;-75
2022/09/01 05:04:21;;;;;;;6.70;3.40;;;;;;;13.17;89.67;101898.88;5095007;28;20130;-75
2022/09/01 05:06:54;;;;;;;3.88;2.95;;;;;;;13.15;89.53;101898.22;5092607;28;20039;-74
2022/09/01 05:09:20;;;;;;;5.00;3.20;;;;;;;13.16;89.39;101893.66;5074543;28;20035;-74
2022/09/01 05:11:47;;;;;;;4.38;3.22;;;;;;;13.17;89.73;101896.19;5095749;28;20040;-75
2022/09/01 05:14:13;;;;;;;5.70;3.08;;;;;;;13.32;89.31;101894.13;5092622;28;20056;-75
2022/09/01 05:16:40;;;;;;;5.07;2.95;;;;;;;13.60;88.17;101891.25;5095531;28;20047;-74
2022/09/01 05:19:13;;;;;;;4.28;2.80;;;;;;;13.83;87.57;101889.94;5092400;28;20024;-75
2022/09/01 05:21:44;;;;;;;4.32;3.03;;;;;;;14.09;85.55;101897.13;5092522;28;20434;-75
2022/09/01 05:27:32;;;;;;;8.65;3.15;;;;;;;14.62;82.76;101897.78;5092724;28;20085;-75
2022/09/01 05:29:59;;;;;;;5.77;2.97;;;;;;;14.68;81.64;101896.91;5077305;28;20043;-75
2022/09/01 05:32:26;;;;;;;6.45;3.10;;;;;;;14.62;81.52;101892.41;5092546;28;20329;-75
2022/09/01 05:34:52;;;;;;;5.75;2.78;;;;;;;14.44;81.89;101898.47;5095345;28;20667;-75
2022/09/01 05:37:18;;;;;;;5.13;3.22;;;;;;;14.33;82.49;101906.38;5092207;28;20310;-74
2022/09/01 05:39:44;;;;;;;3.25;2.80;;;;;;;14.21;83.13;101906.22;5092090;28;20031;-75
2022/09/01 05:42:09;;;;;;;6.82;3.03;;;;;;;14.09;83.76;101905.19;5095277;28;20040;-73
2022/09/01 05:44:42;;;;;;;5.80;3.80;;;;;;;14.01;83.61;101900.88;5092160;28;20032;-74
2022/09/01 05:47:08;;;;;;;6.63;2.85;;;;;;;13.97;84.08;101906.91;5095177;28;20070;-73
2022/09/01 05:49:33;;;;;;;5.68;3.22;;;;;;;13.93;84.39;101898.44;5090783;28;20032;-74
2022/09/01 05:51:59;;;;;;;5.73;3.20;;;;;;;13.96;83.80;101911.44;5095042;28;20047;-74
2022/09/01 05:54:27;;;;;;;6.07;3.22;;;;;;;13.97;84.52;101909.59;5092094;28;20314;-74
2022/09/01 05:56:56;;;;;;;9.05;3.08;;;;;;;13.95;84.60;101901.72;5073857;28;20365;-73
2022/09/01 05:59:22;;;;;;;4.45;3.00;;;;;;;13.97;83.90;101912.28;5094982;28;20051;-73
2022/09/01 06:01:48;;;;;;;8.65;3.50;;;;;;;14.00;84.24;101912.69;5092012;28;20047;-74
2022/09/01 06:04:14;;;;;;;7.80;3.38;;;;;;;14.17;84.05;101907.69;5095095;28;20480;-74
2022/09/01 06:06:45;;;;;;;3.63;3.20;;;;;;;14.92;81.60;101911.50;5091770;28;20028;-74
2022/09/01 06:09:13;;;;;;;6.28;3.30;;;;;;;15.57;77.54;101914.75;5091830;28;20034;-74
2022/09/01 06:11:39;;;;;;;6.78;3.58;;;;;;;15.62;76.66;101912.28;5094891;28;20043;-74
2022/09/01 06:14:09;;;;;;;6.50;2.92;;;;;;;15.76;76.28;101912.97;5091647;28;20024;-74
2022/09/01 06:16:36;;;;;;;3.15;2.75;;;;;;;16.52;73.71;101907.16;5080544;28;20094;-75
2022/09/01 06:22:27;;;;;;;7.75;3.10;;;;;;;18.10;67.74;101911.94;5095696;28;20142;-75
2022/09/01 06:28:16;;;;;;;5.15;3.00;;;;;;;17.67;65.60;101920.44;5095665;28;20062;-74
2022/09/01 06:34:04;;;;;;;6.47;3.05;;;;;;;17.96;67.02;101910.56;5095265;28;20120;-74
2022/09/01 06:36:32;;;;;;;5.40;2.97;;;;;;;19.22;63.28;101916.84;5094961;28;20122;-75
2022/09/01 06:42:22;;;;;;;5.00;3.45;;;;;;;20.62;56.10;101910.22;5095249;28;20047;-74
2022/09/01 06:44:47;;;;;;;8.80;3.38;;;;;;;21.21;55.20;101910.28;5076874;28;20031;-74
2022/09/01 06:50:34;;;;;;;6.75;3.30;;;;;;;22.80;51.47;101923.72;5094970;28;20659;-74
2022/09/01 06:53:09;;;;;;;8.52;3.45;;;;;;;22.74;49.59;101922.91;5098257;28;20115;-75
2022/09/01 06:55:38;;;;;;;7.95;3.50;;;;;;;22.53;50.04;101932.91;5077820;28;20047;-75
2022/09/01 07:01:26;;;;;;;5.40;2.85;;;;;;;22.88;48.45;101933.34;5094998;28;20552;-75
2022/09/01 07:07:13;;;;;;;6.10;3.00;;;;;;;24.09;45.86;101925.09;5095678;28;20098;-75
2022/09/01 07:09:39;;;;;;;9.77;2.90;;;;;;;24.25;44.73;101925.84;5099698;28;20043;-75
2022/09/01 07:12:05;;;;;;;7.38;3.00;;;;;;;24.58;44.26;101934.53;5077185;28;20270;-75
2022/09/01 07:17:55;;;;;;;4.97;3.08;;;;;;;25.14;42.66;101939.66;5094871;28;20165;-75
2022/09/01 07:20:24;;;;;;;6.68;3.10;;;;;;;25.70;41.22;101940.03;5076916;28;20077;-75
2022/09/01 07:22:51;;;;;;;4.75;2.78;;;;;;;26.11;39.60;101942.34;5079270;28;20066;-75
2022/09/01 07:25:16;;;;;;;4.40;2.83;;;;;;;26.67;39.08;101942.50;5094352;28;20479;-75
2022/09/01 07:27:49;;;;;;;3.58;2.90;;;;;;;26.97;38.53;101938.50;5079262;28;20046;-75
2022/09/01 07:30:19;;;;;;;7.97;3.10;;;;;;;26.98;38.92;101942.06;5094794;28;20387;-75
2022/09/01 07:32:47;;;;;;;6.70;3.45;;;;;;;27.10;37.81;101945.19;5097632;28;20085;-76
2022/09/01 07:35:17;;;;;;;6.07;3.10;;;;;;;27.18;37.02;101939.03;5060284;28;20412;-75
2022/09/01 07:37:43;;;;;;;5.55;3.10;;;;;;;27.67;37.24;101934.91;5096304;28;20472;-75
2022/09/01 07:40:14;;;;;;;8.10;3.10;;;;;;;28.06;37.18;101934.47;5099171;28;20117;-76
2022/09/01 07:42:42;;;;;;;8.10;3.03;;;;;;;28.49;35.48;101945.97;5078650;28;20048;-75
2022/09/01 07:45:09;;;;;;;6.50;3.00;;;;;;;28.69;35.31;101939.22;5098157;28;20043;-76
2022/09/01 07:50:56;;;;;;;8.80;2.92;;;;;;;29.21;34.78;101943.25;5094714;28;20043;-76
2022/09/01 07:53:25;;;;;;;4.93;2.80;;;;;;;29.64;34.19;101945.47;5075797;28;20388;-75
2022/09/01 07:55:53;;;;;;;4.97;2.80;;;;;;;29.15;34.01;101941.72;5093845;28;20051;-74
2022/09/01 07:58:20;;;;;;;5.38;3.17;;;;;;;28.38;34.99;101942.63;5097069;28;20515;-76
2022/09/01 08:00:48;;;;;;;6.25;3.05;;;;;;;28.22;36.78;101937.72;5094152;28;20028;-74
2022/09/01 08:03:15;;;;;;;6.82;2.97;;;;;;;28.57;35.30;101934.22;5078847;28;20036;-76
2022/09/01 08:05:40;;;;;;;4.82;2.85;;;;;;;28.93;34.18;101934.28;5094308;28;20085;-75
2022/09/01 08:11:29;;;;;;;3.58;2.78;;;;;;;27.69;36.07;101943.66;5094145;28;20674;-75
2022/09/01 08:13:57;;;;;;;5.68;3.15;;;;;;;28.03;36.17;101940.53;5095265;28;20150;-75
2022/09/01 08:16:24;;;;;;;5.60;3.15;;;;;;;28.08;35.98;101938.53;5095763;28;20051;-75
2022/09/01 08:18:49;;;;;;;5.47;2.58;;;;;;;28.28;36.45;101942.81;5093634;28;20036;-74
2022/09/01 08:21:17;;;;;;;4.68;3.00;;;;;;;28.16;35.91;101933.44;5096972;28;20101;-76
2022/09/01 08:23:42;;;;;;;7.18;3.30;;;;;;;29.06;35.25;101938.09;5094031;28;20036;-75
2022/09/01 08:26:10;;;;;;;5.78;2.90;;;;;;;28.98;35.16;101941.59;5096626;28;20044;-76
2022/09/01 08:28:35;;;;;;;5.85;3.25;;;;;;;29.12;33.78;101934.09;5093528;28;20089;-74
2022/09/01 08:31:12;;;;;;;6.03;2.87;;;;;;;29.21;35.13;101939.69;5094297;28;20524;-74
2022/09/01 08:33:42;;;;;;;7.00;3.35;;;;;;;29.25;34.60;101940.69;5097519;28;20328;-75
2022/09/01 08:36:12;;;;;;;7.85;3.15;;;;;;;29.50;33.40;101945.56;5094262;28;20036;-75
2022/09/01 08:38:39;;;;;;;6.85;3.28;;;;;;;29.99;33.38;101940.94;5096973;28;20028;-75
2022/09/01 08:41:15;;;;;;;6.25;3.20;;;;;;;30.25;32.64;101940.25;5094087;28;20400;-75
2022/09/01 08:43:55;;;;;;;7.55;2.83;;;;;;;30.35;32.62;101940.75;5096167;28;20028;-75
2022/09/01 08:46:33;;;;;;;7.15;3.22;;;;;;;31.49;30.82;101946.00;5075351;28;20116;-75
2022/09/01 08:49:06;;;;;;;5.03;2.90;;;;;;;31.52;30.29;101950.91;5093544;28;20035;-74
2022/09/01 08:51:43;;;;;;;3.63;2.80;;;;;;;31.17;31.55;101952.09;5096438;28;20450;-75
2022/09/01 08:54:28;;;;;;;5.75;3.10;;;;;;;31.07;30.47;101945.72;5075376;28;20472;-75
2022/09/01 08:56:58;;;;;;;4.63;2.67;;;;;;;30.76;31.33;101945.91;5096529;28;20040;-75
2022/09/01 08:59:25;;;;;;;6.03;3.00;;;;;;;29.85;32.80;101945.75;5094123;28;20073;-75
2022/09/01 09:01:59;;;;;;;6.45;3.45;;;;;;;29.75;33.13;101941.31;5097905;28;20039;-75
2022/09/01 09:05:04;;;;;;;3.30;2.42;;;;;;;30.28;32.52;101937.66;5093644;28;20492;-75
2022/09/01 09:07:51;;;;;;;3.67;2.58;;;;;;;29.37;33.20;101940.91;5096089;28;20092;-75
2022/09/01 09:10:19;;;;;;;3.65;2.63;;;;;;;28.51;34.42;101935.47;5094482;28;20085;-75
2022/09/01 09:13:12;;;;;;;6.40;3.13;;;;;;;27.63;36.71;101933.88;5076137;28;20020;-75
2022/09/01 09:16:03;;;;;;;4.57;2.65;;;;;;;26.66;38.61;101937.31;5091102;28;20082;-75
2022/09/01 09:18:39;;;;;;;5.75;3.15;;;;;;;25.90;39.85;101925.31;5093948;28;20077;-75
2022/09/01 09:21:16;;;;;;;4.75;2.85;;;;;;;25.59;39.92;101927.50;5095906;28;20067;-74
2022/09/01 09:23:47;;;;;;;7.22;3.50;;;;;;;25.49;40.39;101925.69;5094259;28;20032;-75
2022/09/01 09:26:12;;;;;;;7.05;3.10;;;;;;;25.06;41.45;101923.84;5095473;28;20036;-75
2022/09/01 09:28:38;;;;;;;5.45;2.95;;;;;;;24.86;43.45;101922.84;5076751;28;20043;-75
2022/09/01 09:31:31;;;;;;;6.88;2.95;;;;;;;24.78;43.62;101928.09;5077873;28;20546;-76
2022/09/01 09:33:57;;;;;;;6.65;3.17;;;;;;;24.18;43.69;101919.88;5092102;28;20499;-75
2022/09/01 09:36:35;;;;;;;8.52;2.92;;;;;;;24.33;43.60;101928.06;5073934;28;20039;-76
2022/09/01 09:39:17;;;;;;;2.80;2.30;;;;;;;24.06;44.27;101914.72;5095158;28;20040;-75
2022/09/01 09:42:00;;;;;;;6.53;3.30;;;;;;;23.47;47.34;101906.34;5091907;28;20036;-75
2022/09/01 09:44:30;;;;;;;6.93;2.85;;;;;;;23.73;46.71;101909.91;5076917;28;20038;-75
2022/09/01 09:46:56;;;;;;;8.55;2.53;;;;;;;23.84;46.07;101905.22;5091782;28;20032;-75
2022/09/01 09:49:32;;;;;;;4.13;2.55;;;;;;;24.21;44.45;101908.38;5094835;28;20044;-75
2022/09/01 09:52:06;;;;;;;10.60;3.00;;;;;;;23.86;45.60;101900.31;5091656;28;20498;-75
2022/09/01 09:54:34;;;;;;;4.70;2.67;;;;;;;23.98;44.33;101887.97;5092698;28;20032;-75
2022/09/01 09:57:16;;;;;;;4.70;2.88;;;;;;;23.96;45.93;101890.16;5094309;28;20044;-74
2022/09/01 09:59:49;;;;;;;5.82;2.47;;;;;;;23.96;43.21;101886.59;5074067;28;20070;-75
2022/09/01 10:02:38;;;;;;;3.40;1.90;;;;;;;24.35;42.49;101909.47;5077364;28;20085;-75
2022/09/01 10:05:22;;;;;;;4.13;2.28;;;;;;;24.03;42.77;101884.41;5073739;28;20392;-74
2022/09/01 10:07:48;;;;;;;4.90;2.35;;;;;;;23.90;42.14;101880.34;5094992;28;20614;-75
2022/09/01 10:10:38;;;;;;;4.22;2.15;;;;;;;24.37;41.81;101888.13;5073793;28;20035;-75
2022/09/01 10:13:07;;;;;;;2.90;2.03;;;;;;;24.12;42.48;101888.19;5077032;28;20044;-75
2022/09/01 10:15:32;;;;;;;6.07;2.00;;;;;;;23.92;40.62;101878.16;5073487;28;20468;-75
2022/09/01 10:18:06;;;;;;;3.88;2.00;;;;;;;24.08;42.24;101887.94;5092602;28;20031;-75
2022/09/01 10:23:53;;;;;;;4.28;1.95;;;;;;;23.57;39.63;101873.59;5091516;28;20070;-76
2022/09/01 10:26:23;;;;;;;3.33;1.40;;;;;;;23.82;39.60;101874.63;5091121;28;20068;-76
2022/09/01 10:29:01;;;;;;;7.47;1.90;;;;;;;23.70;38.97;101869.47;5091613;28;20309;-75
2022/09/01 10:31:28;;;;;;;4.35;1.58;;;;;;;23.86;39.79;101886.66;5076676;28;20058;-75
2022/09/01 10:33:54;;;;;;;4.32;1.90;;;;;;;23.92;42.37;101882.78;5091376;28;20533;-76
2022/09/01 10:36:21;;;;;;;4.35;2.05;;;;;;;23.83;39.68;101881.75;5094500;28;20123;-78
2022/09/01 10:38:47;;;;;;;5.35;1.90;;;;;;;23.75;39.52;101872.19;5073462;28;20778;-76
2022/09/01 10:41:42;;;;;;;3.80;1.80;;;;;;;23.91;39.22;101876.50;5091402;28;20077;-76
2022/09/01 10:44:19;;;;;;;2.03;1.50;;;;;;;24.13;39.23;101875.34;5088361;28;20032;-76
2022/09/01 10:46:45;;;;;;;5.85;1.65;;;;;;;24.00;39.32;101874.03;5091498;28;20032;-76
2022/09/01 10:49:29;;;;;;;3.83;1.52;;;;;;;23.99;37.80;101878.66;5094224;28;20146;-75
2022/09/01 10:51:55;;;;;;;3.63;1.50;;;;;;;23.87;37.76;101880.09;5091221;28;20081;-76
2022/09/01 10:54:44;;;;;;;2.88;1.70;;;;;;;23.93;37.41;101877.03;5094312;28;20368;-75
2022/09/01 10:57:20;;;;;;;3.60;1.70;;;;;;;23.97;38.80;101869.09;5091114;28;20077;-75
2022/09/01 10:59:46;;;;;;;2.97;1.67;;;;;;;24.05;38.03;101865.81;5094207;28;20123;-76
2022/09/01 11:02:17;;;;;;;3.70;1.73;;;;;;;24.35;38.09;101884.84;5075497;28;20122;-75
2022/09/01 11:04:45;;;;;;;2.40;1.98;;;;;;;24.43;36.91;101864.28;5076290;28;20032;-76
2022/09/01 11:07:17;;;;;;;4.25;2.25;;;;;;;24.87;36.58;101860.75;5079498;28;20066;-76
2022/09/01 11:09:47;;;;;;;5.38;1.98;;;;;;;24.66;36.35;101863.63;5094529;28;20035;-76
2022/09/01 11:12:55;;;;;;;2.15;1.55;;;;;;;24.67;36.43;101864.44;5097361;28;20051;-75
2022/09/01 11:15:41;;;;;;;8.55;1.80;;;;;;;24.63;37.09;101860.63;5094410;28;20028;-76
2022/09/01 11:18:11;;;;;;;5.07;1.90;;;;;;;24.35;36.87;101860.25;5097524;28;20052;-75
2022/09/01 11:20:39;;;;;;;5.40;1.98;;;;;;;24.13;39.38;101872.63;5076119;28;20165;-76
2022/09/01 11:23:29;;;;;;;5.30;2.17;;;;;;;23.93;37.82;101863.38;5079140;28;20074;-75
2022/09/01 11:25:57;;;;;;;3.30;1.90;;;;;;;23.75;38.87;101850.34;5094248;28;20024;-75
2022/09/01 11:28:22;;;;;;;5.00;1.85;;;;;;;23.82;38.18;101845.41;5094177;28;20032;-73
2022/09/01 11:31:00;;;;;;;1.87;1.53;;;;;;;24.08;38.25;101849.69;5079282;28;20051;-75
2022/09/01 11:33:36;;;;;;;4.38;1.70;;;;;;;24.07;37.55;101849.97;5094181;28;20391;-76
2022/09/01 11:36:25;;;;;;;8.23;2.28;;;;;;;24.03;35.11;101838.78;5079140;28;20380;-75
2022/09/01 11:39:08;;;;;;;6.88;2.00;;;;;;;24.07;35.47;101839.84;5093556;28;20038;-76
2022/09/01 11:41:40;;;;;;;2.55;1.88;;;;;;;24.27;36.36;101838.09;5079156;28;20503;-76
2022/09/01 11:44:17;;;;;;;7.97;2.50;;;;;;;24.31;35.93;101844.69;5093930;28;20024;-76
2022/09/01 11:46:44;;;;;;;2.15;1.73;;;;;;;24.08;35.49;101819.63;5096983;28;20100;-75
2022/09/01 11:49:30;;;;;;;2.78;1.60;;;;;;;23.98;35.45;101829.75;5093874;28;20059;-74
2022/09/01 11:51:57;;;;;;;3.55;1.40;;;;;;;23.93;35.82;101827.06;5093769;28;20495;-74
2022/09/01 11:54:23;;;;;;;6.45;1.73;;;;;;;23.97;34.36;101822.66;5096823;28;20127;-74
2022/09/01 11:56:49;;;;;;;3.55;1.67;;;;;;;24.09;34.86;101823.16;5093679;28;20081;-76
2022/09/01 11:59:30;;;;;;;3.67;1.88;;;;;;;24.26;34.92;101820.06;5096672;28;20048;-75
2022/09/01 12:01:56;;;;;;;4.55;1.70;;;;;;;24.32;34.79;101816.25;5093776;28;20028;-75
2022/09/01 12:04:31;;;;;;;6.25;1.65;;;;;;;24.49;33.92;101813.13;5077172;28;20431;-75
2022/09/01 12:06:58;;;;;;;2.95;1.40;;;;;;;24.32;33.00;101808.88;5093681;28;20036;-75
2022/09/01 12:09:37;;;;;;;2.75;1.38;;;;;;;24.44;33.14;101816.72;5075406;28;20056;-75
2022/09/01 12:12:04;;;;;;;2.88;1.50;;;;;;;24.50;33.06;101796.44;5095717;28;20385;-75
2022/09/01 12:14:30;;;;;;;3.65;1.40;;;;;;;24.68;32.79;101816.81;5092889;28;20388;-76
2022/09/01 12:17:03;;;;;;;1.52;1.20;;;;;;;25.30;32.28;101823.44;5096173;28;20067;-75
2022/09/01 12:19:32;;;;;;;7.20;1.85;;;;;;;25.82;33.05;101808.09;5075212;28;20468;-75
2022/09/01 12:22:05;;;;;;;3.15;1.40;;;;;;;27.05;28.66;101803.28;5093395;28;20032;-75
2022/09/01 12:24:35;;;;;;;4.68;1.77;;;;;;;27.40;27.47;101792.75;5095251;28;20465;-75
2022/09/01 12:27:01;;;;;;;3.20;1.35;;;;;;;27.17;27.66;101802.78;5093248;28;20530;-77
2022/09/01 12:29:28;;;;;;;5.35;1.75;;;;;;;26.94;27.48;101801.81;5096376;28;20040;-77
2022/09/01 12:31:54;;;;;;;6.65;1.65;;;;;;;26.41;28.71;101802.13;5075196;28;20111;-75
2022/09/01 12:34:25;;;;;;;2.85;1.30;;;;;;;25.95;29.01;101804.63;5096277;28;20035;-75
2022/09/01 12:37:19;;;;;;;2.50;1.25;;;;;;;26.16;29.24;101800.53;5075506;28;20036;-75
2022/09/01 12:39:47;;;;;;;6.53;1.30;;;;;;;26.49;27.91;101795.94;5093186;28;20472;-75
2022/09/01 12:42:19;;;;;;;4.55;1.60;;;;;;;26.88;27.57;101792.00;5095549;28;20043;-76
2022/09/01 12:44:50;;;;;;;3.42;1.30;;;;;;;27.61;26.67;101798.69;5093088;28;20032;-76
2022/09/01 12:47:39;;;;;;;3.50;1.48;;;;;;;27.85;26.57;101802.06;5095951;28;20042;-75
2022/09/01 12:50:07;;;;;;;4.30;1.40;;;;;;;26.93;26.80;101799.38;5092879;28;20028;-75
2022/09/01 12:52:35;;;;;;;2.50;1.05;;;;;;;26.20;28.25;101808.97;5095779;28;20531;-75
2022/09/01 12:55:01;;;;;;;1.80;1.45;;;;;;;25.64;28.58;101793.19;5074627;28;20036;-76
2022/09/01 12:57:31;;;;;;;4.53;1.30;;;;;;;25.42;30.06;101788.25;5074655;28;20383;-75
2022/09/01 13:00:19;;;;;;;1.23;0.95;;;;;;;25.72;29.94;101787.09;5095671;28;20064;-75
2022/09/01 13:02:47;;;;;;;5.45;1.40;;;;;;;26.28;26.03;101791.03;5092757;28;20028;-75
2022/09/01 13:05:34;;;;;;;4.70;1.40;;;;;;;27.03;26.81;101777.25;5095591;28;20094;-76
2022/09/01 13:08:03;;;;;;;1.77;1.02;;;;;;;27.65;26.41;101791.47;5074530;28;20046;-75
2022/09/01 13:13:50;;;;;;;2.03;1.17;;;;;;;26.76;27.25;101789.75;5093197;28;20518;-73
2022/09/01 13:16:16;;;;;;;1.53;1.10;;;;;;;26.20;27.82;101765.09;5095499;28;20123;-72
2022/09/01 13:22:02;;;;;;;2.53;1.40;;;;;;;26.27;26.78;101772.94;5092574;28;20322;-73
2022/09/01 13:27:51;;;;;;;3.20;1.30;;;;;;;26.16;27.24;101764.06;5092379;28;20277;-71
2022/09/01 13:30:27;;;;;;;2.80;1.50;;;;;;;25.94;27.38;101764.63;5074233;28;20580;-71
2022/09/01 13:36:14;;;;;;;1.25;1.15;;;;;;;26.12;26.74;101752.88;5092805;28;20081;-74
2022/09/01 13:42:01;;;;;;;3.28;1.30;;;;;;;26.21;26.83;101758.50;5092302;28;20047;-72
2022/09/01 13:47:48;;;;;;;2.58;1.30;;;;;;;26.16;26.83;101753.91;5092431;28;20498;-74